Ransom Canyon, Texas
Current Conditions -  °F | °C
As of 3:53 AM on Sunday 26 Oct 2014 (Local Time) from KLBB Reporting Station
Clear Clear  
Wind Chill: 17°   Ceiling: Unl
Heat Index: 17°   Visibility: 10mi
Dew Point: 11°   Wind: 13mph
Humidity: 65%   Direction: 220°SW
Pressure: 30.03"   Gusts: NA
Location:  33.53°N, 101.68°W
Report Text: KLBB 260853Z 22011KT 10SM CLR 17/11 A3003 RMK AO2 SLP123 T01720106 58012 $
Loading
Personal Weather Stations






























Interactive Weather Map
Tropical Storm Tracking
New forecast layout! Learn more

10-Day Weather Forecast

Advertisements
Track Severe Weather on mobile